sensor_id;sensor_type;location;lat;lon;timestamp;temperature;humidity
13091;DHT22;6611;52.604;13.438;2024-03-08T00:02:24;0.69;75.99
13091;DHT22;6611;52.604;13.438;2024-03-08T00:07:26;0.64;76.17
13091;DHT22;6611;52.604;13.438;2024-03-08T00:12:28;0.65;76.09
13091;DHT22;6611;52.604;13.438;2024-03-08T00:17:31;0.57;76.37
13091;DHT22;6611;52.604;13.438;2024-03-08T00:22:32;0.54;76.37
13091;DHT22;6611;52.604;13.438;2024-03-08T00:27:34;0.45;76.39
13091;DHT22;6611;52.604;13.438;2024-03-08T00:32:37;0.44;76.45
13091;DHT22;6611;52.604;13.438;2024-03-08T00:37:39;0.36;76.61
13091;DHT22;6611;52.604;13.438;2024-03-08T00:42:40;0.34;76.76
13091;DHT22;6611;52.604;13.438;2024-03-08T00:47:45;0.40;76.44
13091;DHT22;6611;52.604;13.438;2024-03-08T00:52:46;0.30;76.59
13091;DHT22;6611;52.604;13.438;2024-03-08T00:57:48;0.24;76.95
13091;DHT22;6611;52.604;13.438;2024-03-08T01:02:52;0.20;77.01
13091;DHT22;6611;52.604;13.438;2024-03-08T01:07:54;0.18;76.80
13091;DHT22;6611;52.604;13.438;2024-03-08T01:12:58;0.11;77.16
13091;DHT22;6611;52.604;13.438;2024-03-08T01:18:02;0.18;76.99
13091;DHT22;6611;52.604;13.438;2024-03-08T01:23:05;0.16;76.35
13091;DHT22;6611;52.604;13.438;2024-03-08T01:28:07;0.07;77.04
13091;DHT22;6611;52.604;13.438;2024-03-08T01:33:11;0.05;77.16
13091;DHT22;6611;52.604;13.438;2024-03-08T01:38:12;0.02;76.94
13091;DHT22;6611;52.604;13.438;2024-03-08T01:43:21;-0.05;76.76
13091;DHT22;6611;52.604;13.438;2024-03-08T01:48:24;-0.07;77.10
13091;DHT22;6611;52.604;13.438;2024-03-08T01:53:26;-0.11;77.30
13091;DHT22;6611;52.604;13.438;2024-03-08T01:58:29;-0.14;77.31
13091;DHT22;6611;52.604;13.438;2024-03-08T02:03:34;-0.12;76.82
13091;DHT22;6611;52.604;13.438;2024-03-08T02:08:36;-0.25;77.31
13091;DHT22;6611;52.604;13.438;2024-03-08T02:13:38;-0.21;77.01
13091;DHT22;6611;52.604;13.438;2024-03-08T02:18:41;-0.33;77.05
13091;DHT22;6611;52.604;13.438;2024-03-08T02:23:47;-0.38;76.64
13091;DHT22;6611;52.604;13.438;2024-03-08T02:28:48;-0.46;76.86
13091;DHT22;6611;52.604;13.438;2024-03-08T02:33:50;-0.50;77.73
13091;DHT22;6611;52.604;13.438;2024-03-08T02:38:53;-0.50;77.17
13091;DHT22;6611;52.604;13.438;2024-03-08T02:43:55;-0.52;77.05
13091;DHT22;6611;52.604;13.438;2024-03-08T02:48:57;-0.57;78.05
13091;DHT22;6611;52.604;13.438;2024-03-08T02:54:02;-0.57;78.09
13091;DHT22;6611;52.604;13.438;2024-03-08T02:59:04;-0.70;78.05
13091;DHT22;6611;52.604;13.438;2024-03-08T03:04:06;-0.70;77.60
13091;DHT22;6611;52.604;13.438;2024-03-08T03:09:08;-0.72;77.92
13091;DHT22;6611;52.604;13.438;2024-03-08T03:14:11;-0.73;77.66
13091;DHT22;6611;52.604;13.438;2024-03-08T03:19:13;-0.76;77.65
13091;DHT22;6611;52.604;13.438;2024-03-08T03:24:16;-0.80;78.20
13091;DHT22;6611;52.604;13.438;2024-03-08T03:29:18;-0.84;78.36
13091;DHT22;6611;52.604;13.438;2024-03-08T03:34:20;-0.88;78.16
13091;DHT22;6611;52.604;13.438;2024-03-08T03:39:24;-0.87;77.81
13091;DHT22;6611;52.604;13.438;2024-03-08T03:44:26;-0.85;78.22
13091;DHT22;6611;52.604;13.438;2024-03-08T03:49:28;-0.85;77.43
13091;DHT22;6611;52.604;13.438;2024-03-08T03:54:31;-0.85;77.29
13091;DHT22;6611;52.604;13.438;2024-03-08T03:59:33;-0.92;77.84
13091;DHT22;6611;52.604;13.438;2024-03-08T04:04:35;-0.84;77.14
13091;DHT22;6611;52.604;13.438;2024-03-08T04:09:38;-0.91;78.17
13091;DHT22;6611;52.604;13.438;2024-03-08T04:14:41;-1.00;78.48
13091;DHT22;6611;52.604;13.438;2024-03-08T04:19:43;-0.95;77.64
13091;DHT22;6611;52.604;13.438;2024-03-08T04:24:46;-1.02;77.77
13091;DHT22;6611;52.604;13.438;2024-03-08T04:29:48;-1.11;78.49
13091;DHT22;6611;52.604;13.438;2024-03-08T04:34:49;-1.15;78.84
13091;DHT22;6611;52.604;13.438;2024-03-08T04:39:52;-1.19;78.30
13091;DHT22;6611;52.604;13.438;2024-03-08T04:44:54;-1.24;78.66
13091;DHT22;6611;52.604;13.438;2024-03-08T04:49:56;-1.26;78.03
13091;DHT22;6611;52.604;13.438;2024-03-08T04:55:00;-1.24;77.90
13091;DHT22;6611;52.604;13.438;2024-03-08T05:00:02;-1.25;78.48
13091;DHT22;6611;52.604;13.438;2024-03-08T05:05:09;-1.32;78.97
13091;DHT22;6611;52.604;13.438;2024-03-08T05:10:14;-1.32;78.95
13091;DHT22;6611;52.604;13.438;2024-03-08T05:15:17;-1.36;78.93
13091;DHT22;6611;52.604;13.438;2024-03-08T05:20:20;-1.45;79.08
13091;DHT22;6611;52.604;13.438;2024-03-08T05:25:23;-1.35;78.50
13091;DHT22;6611;52.604;13.438;2024-03-08T05:30:25;-1.42;78.54
13091;DHT22;6611;52.604;13.438;2024-03-08T05:35:27;-1.46;78.59
13091;DHT22;6611;52.604;13.438;2024-03-08T05:40:30;-1.42;78.90
13091;DHT22;6611;52.604;13.438;2024-03-08T05:45:32;-1.35;78.63
13091;DHT22;6611;52.604;13.438;2024-03-08T05:50:34;-1.35;78.93
13091;DHT22;6611;52.604;13.438;2024-03-08T05:55:37;-1.25;78.97
13091;DHT22;6611;52.604;13.438;2024-03-08T06:00:39;-1.09;78.51
13091;DHT22;6611;52.604;13.438;2024-03-08T06:05:41;-0.97;77.93
13091;DHT22;6611;52.604;13.438;2024-03-08T06:10:44;-0.83;77.89
13091;DHT22;6611;52.604;13.438;2024-03-08T06:15:46;-0.80;79.04
13091;DHT22;6611;52.604;13.438;2024-03-08T06:20:48;-0.72;78.40
13091;DHT22;6611;52.604;13.438;2024-03-08T06:25:51;-0.56;78.39
13091;DHT22;6611;52.604;13.438;2024-03-08T06:30:52;-0.49;78.28
13091;DHT22;6611;52.604;13.438;2024-03-08T06:35:54;-0.14;77.78
13091;DHT22;6611;52.604;13.438;2024-03-08T06:40:58;0.54;76.60
13091;DHT22;6611;52.604;13.438;2024-03-08T06:46:03;1.04;74.30
13091;DHT22;6611;52.604;13.438;2024-03-08T06:51:05;1.44;72.98
13091;DHT22;6611;52.604;13.438;2024-03-08T06:56:08;1.77;72.47
13091;DHT22;6611;52.604;13.438;2024-03-08T07:01:10;1.99;72.93
13091;DHT22;6611;52.604;13.438;2024-03-08T07:06:14;2.35;72.83
13091;DHT22;6611;52.604;13.438;2024-03-08T07:11:17;2.59;71.30
13091;DHT22;6611;52.604;13.438;2024-03-08T07:16:19;2.69;72.11
13091;DHT22;6611;52.604;13.438;2024-03-08T07:21:21;2.87;72.37
13091;DHT22;6611;52.604;13.438;2024-03-08T07:26:24;3.29;71.13
13091;DHT22;6611;52.604;13.438;2024-03-08T07:31:26;3.63;71.25
13091;DHT22;6611;52.604;13.438;2024-03-08T07:36:44;3.71;70.06
13091;DHT22;6611;52.604;13.438;2024-03-08T07:41:47;3.90;69.14
13091;DHT22;6611;52.604;13.438;2024-03-08T07:46:49;3.98;68.73
13091;DHT22;6611;52.604;13.438;2024-03-08T07:51:51;4.21;69.02
13091;DHT22;6611;52.604;13.438;2024-03-08T07:56:54;4.31;67.66
13091;DHT22;6611;52.604;13.438;2024-03-08T08:01:56;4.36;67.68
13091;DHT22;6611;52.604;13.438;2024-03-08T08:06:58;4.71;67.61
13091;DHT22;6611;52.604;13.438;2024-03-08T08:12:01;4.91;66.16
13091;DHT22;6611;52.604;13.438;2024-03-08T08:17:03;4.89;65.09
13091;DHT22;6611;52.604;13.438;2024-03-08T08:22:05;5.22;63.80
13091;DHT22;6611;52.604;13.438;2024-03-08T08:27:10;5.56;64.47
13091;DHT22;6611;52.604;13.438;2024-03-08T08:32:12;5.46;62.99
13091;DHT22;6611;52.604;13.438;2024-03-08T08:37:13;5.77;63.17
13091;DHT22;6611;52.604;13.438;2024-03-08T08:42:18;6.06;62.88
13091;DHT22;6611;52.604;13.438;2024-03-08T08:47:19;6.38;62.62
13091;DHT22;6611;52.604;13.438;2024-03-08T08:52:21;6.36;59.19
13091;DHT22;6611;52.604;13.438;2024-03-08T08:57:24;6.29;59.91
13091;DHT22;6611;52.604;13.438;2024-03-08T09:02:27;6.27;59.84
13091;DHT22;6611;52.604;13.438;2024-03-08T09:07:29;6.37;59.52
13091;DHT22;6611;52.604;13.438;2024-03-08T09:12:32;6.60;58.02
13091;DHT22;6611;52.604;13.438;2024-03-08T09:17:34;6.63;56.87
13091;DHT22;6611;52.604;13.438;2024-03-08T09:22:36;6.68;57.19
13091;DHT22;6611;52.604;13.438;2024-03-08T09:27:39;6.74;57.06
13091;DHT22;6611;52.604;13.438;2024-03-08T09:32:41;6.67;57.77
13091;DHT22;6611;52.604;13.438;2024-03-08T09:37:44;6.79;55.72
13091;DHT22;6611;52.604;13.438;2024-03-08T09:42:49;6.78;56.21
13091;DHT22;6611;52.604;13.438;2024-03-08T09:47:51;7.05;55.57
13091;DHT22;6611;52.604;13.438;2024-03-08T09:52:55;6.99;55.46
13091;DHT22;6611;52.604;13.438;2024-03-08T09:57:59;7.16;56.39
13091;DHT22;6611;52.604;13.438;2024-03-08T10:03:19;7.17;54.30
13091;DHT22;6611;52.604;13.438;2024-03-08T10:08:21;7.27;54.21
13091;DHT22;6611;52.604;13.438;2024-03-08T10:13:24;7.28;53.90
13091;DHT22;6611;52.604;13.438;2024-03-08T10:18:27;7.34;53.99
13091;DHT22;6611;52.604;13.438;2024-03-08T10:23:28;7.48;53.40
13091;DHT22;6611;52.604;13.438;2024-03-08T10:28:31;7.37;52.64
13091;DHT22;6611;52.604;13.438;2024-03-08T10:33:33;7.33;52.14
13091;DHT22;6611;52.604;13.438;2024-03-08T10:38:36;7.50;53.82
13091;DHT22;6611;52.604;13.438;2024-03-08T10:44:01;7.61;53.45
13091;DHT22;6611;52.604;13.438;2024-03-08T10:49:14;7.69;53.33
13091;DHT22;6611;52.604;13.438;2024-03-08T10:54:18;7.76;52.55
13091;DHT22;6611;52.604;13.438;2024-03-08T10:59:22;8.06;52.12
13091;DHT22;6611;52.604;13.438;2024-03-08T11:04:24;8.49;50.90
13091;DHT22;6611;52.604;13.438;2024-03-08T11:09:30;9.09;49.29
13091;DHT22;6611;52.604;13.438;2024-03-08T11:14:46;8.93;49.07
13091;DHT22;6611;52.604;13.438;2024-03-08T11:19:49;8.54;49.82
13091;DHT22;6611;52.604;13.438;2024-03-08T11:24:52;9.44;47.97
13091;DHT22;6611;52.604;13.438;2024-03-08T11:30:01;9.58;47.15
13091;DHT22;6611;52.604;13.438;2024-03-08T11:35:18;9.61;47.29
13091;DHT22;6611;52.604;13.438;2024-03-08T11:40:21;9.91;46.54
13091;DHT22;6611;52.604;13.438;2024-03-08T11:45:24;9.96;46.57
13091;DHT22;6611;52.604;13.438;2024-03-08T11:50:26;9.85;46.69
13091;DHT22;6611;52.604;13.438;2024-03-08T11:55:27;10.01;46.58
13091;DHT22;6611;52.604;13.438;2024-03-08T12:00:32;10.06;46.45
13091;DHT22;6611;52.604;13.438;2024-03-08T12:05:38;10.28;45.82
13091;DHT22;6611;52.604;13.438;2024-03-08T12:10:40;10.38;44.15
13091;DHT22;6611;52.604;13.438;2024-03-08T12:15:43;10.22;44.98
13091;DHT22;6611;52.604;13.438;2024-03-08T12:20:45;10.00;45.25
13091;DHT22;6611;52.604;13.438;2024-03-08T12:25:50;9.79;45.25
13091;DHT22;6611;52.604;13.438;2024-03-08T12:30:53;10.06;44.93
13091;DHT22;6611;52.604;13.438;2024-03-08T12:35:56;10.31;44.17
13091;DHT22;6611;52.604;13.438;2024-03-08T12:40:59;10.24;42.64
13091;DHT22;6611;52.604;13.438;2024-03-08T12:46:03;10.17;42.25
13091;DHT22;6611;52.604;13.438;2024-03-08T12:51:06;9.89;43.00
13091;DHT22;6611;52.604;13.438;2024-03-08T12:56:07;10.21;43.34
13091;DHT22;6611;52.604;13.438;2024-03-08T13:01:11;10.30;43.10
13091;DHT22;6611;52.604;13.438;2024-03-08T13:06:15;10.01;43.78
13091;DHT22;6611;52.604;13.438;2024-03-08T13:11:17;10.01;45.70
13091;DHT22;6611;52.604;13.438;2024-03-08T13:16:21;9.90;45.12
13091;DHT22;6611;52.604;13.438;2024-03-08T13:21:22;10.08;44.99
13091;DHT22;6611;52.604;13.438;2024-03-08T13:26:24;9.91;45.82
13091;DHT22;6611;52.604;13.438;2024-03-08T13:31:33;10.01;45.57
13091;DHT22;6611;52.604;13.438;2024-03-08T13:36:36;10.11;46.16
13091;DHT22;6611;52.604;13.438;2024-03-08T13:41:44;9.98;46.28
13091;DHT22;6611;52.604;13.438;2024-03-08T13:46:47;9.97;46.36
13091;DHT22;6611;52.604;13.438;2024-03-08T13:51:51;9.97;46.69
13091;DHT22;6611;52.604;13.438;2024-03-08T13:56:54;9.79;47.60
13091;DHT22;6611;52.604;13.438;2024-03-08T14:01:58;9.66;47.87
13091;DHT22;6611;52.604;13.438;2024-03-08T14:07:00;9.46;47.10
13091;DHT22;6611;52.604;13.438;2024-03-08T14:12:04;9.51;47.87
13091;DHT22;6611;52.604;13.438;2024-03-08T14:17:08;9.46;47.86
13091;DHT22;6611;52.604;13.438;2024-03-08T14:22:11;9.41;48.36
13091;DHT22;6611;52.604;13.438;2024-03-08T14:27:15;9.45;47.63
13091;DHT22;6611;52.604;13.438;2024-03-08T14:32:20;9.56;47.82
13091;DHT22;6611;52.604;13.438;2024-03-08T14:37:23;9.48;46.89
13091;DHT22;6611;52.604;13.438;2024-03-08T14:42:29;9.28;47.48
13091;DHT22;6611;52.604;13.438;2024-03-08T14:47:34;9.45;46.71
13091;DHT22;6611;52.604;13.438;2024-03-08T14:52:35;9.31;46.44
13091;DHT22;6611;52.604;13.438;2024-03-08T14:57:40;9.32;49.17
13091;DHT22;6611;52.604;13.438;2024-03-08T15:02:43;9.27;49.02
13091;DHT22;6611;52.604;13.438;2024-03-08T15:07:45;9.09;48.92
13091;DHT22;6611;52.604;13.438;2024-03-08T15:12:47;9.17;48.48
13091;DHT22;6611;52.604;13.438;2024-03-08T15:17:50;9.09;49.47
13091;DHT22;6611;52.604;13.438;2024-03-08T15:22:52;9.00;49.21
13091;DHT22;6611;52.604;13.438;2024-03-08T15:27:55;8.92;48.89
13091;DHT22;6611;52.604;13.438;2024-03-08T15:33:00;8.90;50.46
13091;DHT22;6611;52.604;13.438;2024-03-08T15:38:06;8.77;48.86
13091;DHT22;6611;52.604;13.438;2024-03-08T15:43:08;8.79;49.73
13091;DHT22;6611;52.604;13.438;2024-03-08T15:48:11;8.80;49.55
13091;DHT22;6611;52.604;13.438;2024-03-08T15:53:13;8.76;49.53
13091;DHT22;6611;52.604;13.438;2024-03-08T15:58:15;8.72;48.61
13091;DHT22;6611;52.604;13.438;2024-03-08T16:03:21;8.65;49.66
13091;DHT22;6611;52.604;13.438;2024-03-08T16:08:23;8.49;49.86
13091;DHT22;6611;52.604;13.438;2024-03-08T16:13:26;8.36;50.39
13091;DHT22;6611;52.604;13.438;2024-03-08T16:18:29;8.24;50.26
13091;DHT22;6611;52.604;13.438;2024-03-08T16:23:35;8.16;50.96
13091;DHT22;6611;52.604;13.438;2024-03-08T16:28:36;8.04;50.92
13091;DHT22;6611;52.604;13.438;2024-03-08T16:33:43;7.97;51.68
13091;DHT22;6611;52.604;13.438;2024-03-08T16:38:45;7.89;51.74
13091;DHT22;6611;52.604;13.438;2024-03-08T16:43:49;7.79;51.56
13091;DHT22;6611;52.604;13.438;2024-03-08T16:48:52;7.65;52.34
13091;DHT22;6611;52.604;13.438;2024-03-08T16:53:54;7.54;51.83
13091;DHT22;6611;52.604;13.438;2024-03-08T16:58:56;7.34;52.20
13091;DHT22;6611;52.604;13.438;2024-03-08T17:03:59;7.26;51.94
13091;DHT22;6611;52.604;13.438;2024-03-08T17:09:02;7.15;52.12
13091;DHT22;6611;52.604;13.438;2024-03-08T17:14:11;7.10;52.34
13091;DHT22;6611;52.604;13.438;2024-03-08T17:19:15;6.89;52.41
13091;DHT22;6611;52.604;13.438;2024-03-08T17:24:18;6.79;53.29
13091;DHT22;6611;52.604;13.438;2024-03-08T17:29:23;6.70;52.77
13091;DHT22;6611;52.604;13.438;2024-03-08T17:34:27;6.55;53.62
13091;DHT22;6611;52.604;13.438;2024-03-08T17:39:29;6.50;53.86
13091;DHT22;6611;52.604;13.438;2024-03-08T17:44:30;6.34;53.78
13091;DHT22;6611;52.604;13.438;2024-03-08T17:49:33;6.32;54.20
13091;DHT22;6611;52.604;13.438;2024-03-08T17:54:35;6.25;54.13
13091;DHT22;6611;52.604;13.438;2024-03-08T17:59:37;6.06;53.89
13091;DHT22;6611;52.604;13.438;2024-03-08T18:04:40;6.09;53.83
13091;DHT22;6611;52.604;13.438;2024-03-08T18:09:41;6.05;53.74
13091;DHT22;6611;52.604;13.438;2024-03-08T18:14:44;5.90;54.20
13091;DHT22;6611;52.604;13.438;2024-03-08T18:19:47;5.82;54.45
13091;DHT22;6611;52.604;13.438;2024-03-08T18:24:50;5.87;54.35
13091;DHT22;6611;52.604;13.438;2024-03-08T18:29:52;5.68;55.59
13091;DHT22;6611;52.604;13.438;2024-03-08T18:34:55;5.75;55.44
13091;DHT22;6611;52.604;13.438;2024-03-08T18:39:56;5.63;55.42
13091;DHT22;6611;52.604;13.438;2024-03-08T18:44:59;5.51;55.74
13091;DHT22;6611;52.604;13.438;2024-03-08T18:50:02;5.40;55.79
13091;DHT22;6611;52.604;13.438;2024-03-08T18:55:07;5.43;55.77
13091;DHT22;6611;52.604;13.438;2024-03-08T19:00:13;5.36;55.98
13091;DHT22;6611;52.604;13.438;2024-03-08T19:05:23;5.28;56.19
13091;DHT22;6611;52.604;13.438;2024-03-08T19:10:27;5.18;56.47
13091;DHT22;6611;52.604;13.438;2024-03-08T19:15:31;5.07;56.95
13091;DHT22;6611;52.604;13.438;2024-03-08T19:20:35;5.08;57.01
13091;DHT22;6611;52.604;13.438;2024-03-08T19:25:38;5.05;57.48
13091;DHT22;6611;52.604;13.438;2024-03-08T19:30:41;5.04;57.98
13091;DHT22;6611;52.604;13.438;2024-03-08T19:35:45;5.04;58.08
13091;DHT22;6611;52.604;13.438;2024-03-08T19:40:49;4.98;58.24
13091;DHT22;6611;52.604;13.438;2024-03-08T19:45:52;5.05;58.33
13091;DHT22;6611;52.604;13.438;2024-03-08T19:50:56;4.94;58.91
13091;DHT22;6611;52.604;13.438;2024-03-08T19:56:06;4.85;59.17
13091;DHT22;6611;52.604;13.438;2024-03-08T20:01:08;4.96;59.08
13091;DHT22;6611;52.604;13.438;2024-03-08T20:06:11;4.89;59.62
13091;DHT22;6611;52.604;13.438;2024-03-08T20:11:13;4.88;59.90
13091;DHT22;6611;52.604;13.438;2024-03-08T20:16:15;4.88;59.98
13091;DHT22;6611;52.604;13.438;2024-03-08T20:21:19;4.81;60.33
13091;DHT22;6611;52.604;13.438;2024-03-08T20:26:21;4.76;60.67
13091;DHT22;6611;52.604;13.438;2024-03-08T20:31:23;4.66;60.92
13091;DHT22;6611;52.604;13.438;2024-03-08T20:36:31;4.57;61.45
13091;DHT22;6611;52.604;13.438;2024-03-08T20:41:45;4.46;61.74
13091;DHT22;6611;52.604;13.438;2024-03-08T20:46:59;4.36;62.36
13091;DHT22;6611;52.604;13.438;2024-03-08T20:52:10;4.26;62.67
13091;DHT22;6611;52.604;13.438;2024-03-08T20:57:12;4.28;62.63
13091;DHT22;6611;52.604;13.438;2024-03-08T21:02:15;4.14;63.24
13091;DHT22;6611;52.604;13.438;2024-03-08T21:07:18;4.16;63.41
13091;DHT22;6611;52.604;13.438;2024-03-08T21:12:20;4.04;63.98
13091;DHT22;6611;52.604;13.438;2024-03-08T21:17:21;4.01;64.14
13091;DHT22;6611;52.604;13.438;2024-03-08T21:22:24;3.90;64.61
13091;DHT22;6611;52.604;13.438;2024-03-08T21:27:26;3.88;64.79
13091;DHT22;6611;52.604;13.438;2024-03-08T21:32:28;3.81;64.99
13091;DHT22;6611;52.604;13.438;2024-03-08T21:37:31;3.87;64.99
13091;DHT22;6611;52.604;13.438;2024-03-08T21:42:33;3.76;65.44
13091;DHT22;6611;52.604;13.438;2024-03-08T21:47:34;3.73;65.80
13091;DHT22;6611;52.604;13.438;2024-03-08T21:52:38;3.67;65.94
13091;DHT22;6611;52.604;13.438;2024-03-08T21:57:39;3.67;66.16
13091;DHT22;6611;52.604;13.438;2024-03-08T22:02:44;3.71;66.28
13091;DHT22;6611;52.604;13.438;2024-03-08T22:07:51;3.62;66.64
13091;DHT22;6611;52.604;13.438;2024-03-08T22:12:53;3.53;67.04
13091;DHT22;6611;52.604;13.438;2024-03-08T22:17:55;3.48;67.30
13091;DHT22;6611;52.604;13.438;2024-03-08T22:22:58;3.45;67.51
13091;DHT22;6611;52.604;13.438;2024-03-08T22:28:01;3.38;67.80
13091;DHT22;6611;52.604;13.438;2024-03-08T22:33:04;3.36;67.90
13091;DHT22;6611;52.604;13.438;2024-03-08T22:38:10;3.38;67.88
13091;DHT22;6611;52.604;13.438;2024-03-08T22:43:12;3.29;68.19
13091;DHT22;6611;52.604;13.438;2024-03-08T22:48:14;3.31;68.11
13091;DHT22;6611;52.604;13.438;2024-03-08T22:53:17;3.29;68.36
13091;DHT22;6611;52.604;13.438;2024-03-08T22:58:18;3.22;68.55
13091;DHT22;6611;52.604;13.438;2024-03-08T23:03:20;3.18;68.69
13091;DHT22;6611;52.604;13.438;2024-03-08T23:08:24;3.12;68.96
13091;DHT22;6611;52.604;13.438;2024-03-08T23:13:29;3.08;69.01
13091;DHT22;6611;52.604;13.438;2024-03-08T23:18:34;3.11;68.92
13091;DHT22;6611;52.604;13.438;2024-03-08T23:23:37;3.04;69.20
13091;DHT22;6611;52.604;13.438;2024-03-08T23:28:39;3.05;69.32
13091;DHT22;6611;52.604;13.438;2024-03-08T23:33:42;2.87;69.74
13091;DHT22;6611;52.604;13.438;2024-03-08T23:38:48;2.87;70.01
13091;DHT22;6611;52.604;13.438;2024-03-08T23:43:51;2.73;70.16
13091;DHT22;6611;52.604;13.438;2024-03-08T23:48:53;2.75;70.34
13091;DHT22;6611;52.604;13.438;2024-03-08T23:53:56;2.79;70.24
13091;DHT22;6611;52.604;13.438;2024-03-08T23:58:57;2.59;70.70
